createdAt,value
2019-03-02T00:02:09.547Z,18.17
2019-03-02T00:04:58.577Z,14.85
2019-03-02T00:07:48.822Z,11.40
2019-03-02T00:10:40.588Z,14.33
2019-03-02T00:13:29.364Z,23.45
2019-03-02T00:16:18.970Z,12.30
2019-03-02T00:19:08.070Z,11.43
2019-03-02T00:21:57.714Z,13.20
2019-03-02T00:24:46.954Z,19.25
2019-03-02T00:27:36.615Z,37.42
2019-03-02T00:30:25.630Z,26.87
2019-03-02T00:33:16.631Z,13.18
2019-03-02T00:36:05.465Z,16.80
2019-03-02T00:38:54.966Z,14.43
2019-03-02T00:41:44.393Z,14.05
2019-03-02T00:44:35.722Z,12.07
2019-03-02T00:47:24.817Z,19.30
2019-03-02T00:50:14.054Z,10.80
2019-03-02T00:53:03.361Z,9.85
2019-03-02T00:55:53.089Z,13.08
2019-03-02T00:58:42.103Z,7.45
2019-03-02T01:01:31.038Z,20.65
2019-03-02T01:04:22.769Z,9.10
2019-03-02T01:07:11.606Z,14.40
2019-03-02T01:10:00.995Z,11.95
2019-03-02T01:12:50.157Z,18.87
2019-03-02T01:15:40.704Z,7.15
2019-03-02T01:18:30.376Z,7.28
2019-03-02T01:21:19.841Z,15.25
2019-03-02T01:24:09.109Z,10.50
2019-03-02T01:26:59.489Z,20.27
2019-03-02T01:29:51.665Z,12.53
2019-03-02T01:32:40.093Z,7.33
2019-03-02T01:35:29.361Z,5.92
2019-03-02T01:38:19.476Z,13.65
2019-03-02T01:41:08.921Z,7.75
2019-03-02T01:43:58.196Z,7.17
2019-03-02T01:46:47.874Z,15.80
2019-03-02T01:49:37.750Z,16.12
2019-03-02T01:52:30.712Z,10.50
2019-03-02T01:55:18.076Z,11.12
2019-03-02T01:58:07.718Z,11.83
2019-03-02T02:00:56.721Z,21.70
2019-03-02T02:03:47.047Z,9.80
2019-03-02T02:06:39.840Z,19.52
2019-03-02T02:09:28.283Z,9.93
2019-03-02T02:12:17.032Z,18.77
2019-03-02T02:15:10.321Z,11.43
2019-03-02T02:18:02.332Z,12.70
2019-03-02T02:20:51.662Z,11.55
2019-03-02T02:23:41.491Z,11.20
2019-03-02T02:26:30.459Z,13.78
2019-03-02T02:29:19.720Z,13.00
2019-03-02T02:32:08.783Z,12.63
2019-03-02T02:35:01.010Z,14.47
2019-03-02T02:37:48.320Z,7.50
2019-03-02T02:40:37.719Z,4.75
2019-03-02T02:43:26.465Z,7.40
2019-03-02T02:46:15.965Z,15.75
2019-03-02T02:49:05.589Z,10.95
2019-03-02T02:51:55.920Z,16.32
2019-03-02T02:54:44.956Z,5.62
2019-03-02T02:57:38.335Z,12.15
2019-03-02T03:00:27.072Z,14.93
2019-03-02T03:03:20.697Z,9.63
2019-03-02T03:06:07.185Z,17.37
2019-03-02T03:08:56.683Z,9.23
2019-03-02T03:11:45.750Z,13.30
2019-03-02T03:14:35.465Z,11.85
2019-03-02T03:17:28.093Z,6.25
2019-03-02T03:20:14.618Z,7.00
2019-03-02T03:23:03.844Z,16.45
2019-03-02T03:25:57.117Z,11.25
2019-03-02T03:28:43.331Z,14.03
2019-03-02T03:31:32.192Z,10.32
2019-03-02T03:34:28.857Z,7.35
2019-03-02T03:37:13.288Z,5.72
2019-03-02T03:40:03.697Z,11.05
2019-03-02T03:42:52.708Z,14.10
2019-03-02T03:45:43.399Z,10.53
2019-03-02T03:48:32.567Z,9.63
2019-03-02T03:51:21.282Z,13.75
2019-03-02T03:54:10.005Z,7.33
2019-03-02T03:56:59.129Z,8.35
2019-03-02T03:59:48.318Z,9.15
2019-03-02T04:02:37.756Z,6.95
2019-03-02T04:05:27.179Z,8.05
2019-03-02T04:08:16.736Z,7.03
2019-03-02T04:11:05.985Z,2.95
2019-03-02T04:13:55.446Z,7.97
2019-03-02T04:16:45.900Z,10.50
2019-03-02T04:19:36.244Z,11.68
2019-03-02T04:22:25.017Z,5.12
2019-03-02T04:25:17.845Z,19.30
2019-03-02T04:28:05.491Z,5.10
2019-03-02T04:30:56.388Z,11.97
2019-03-02T04:33:45.847Z,11.80
2019-03-02T04:36:34.770Z,9.28
2019-03-02T04:39:23.835Z,7.75
2019-03-02T04:42:14.573Z,7.40
2019-03-02T04:45:05.130Z,8.20
2019-03-02T04:47:55.319Z,8.03
2019-03-02T04:50:44.585Z,9.93
2019-03-02T04:53:34.067Z,7.65
2019-03-02T04:56:24.135Z,7.00
2019-03-02T04:59:13.648Z,8.40
2019-03-02T05:02:02.689Z,10.68
2019-03-02T05:04:51.996Z,6.85
2019-03-02T05:07:41.230Z,8.30
2019-03-02T05:10:29.880Z,7.67
2019-03-02T05:13:18.953Z,7.95
2019-03-02T05:16:07.692Z,13.43
2019-03-02T05:18:56.976Z,6.40
2019-03-02T05:21:46.294Z,7.80
2019-03-02T05:24:35.716Z,10.58
2019-03-02T05:27:25.191Z,11.05
2019-03-02T05:30:16.333Z,9.38
2019-03-02T05:33:05.577Z,7.45
2019-03-02T05:35:54.685Z,7.50
2019-03-02T05:38:43.403Z,9.73
2019-03-02T05:41:35.712Z,4.70
2019-03-02T05:44:23.256Z,4.53
2019-03-02T05:47:12.744Z,7.92
2019-03-02T05:50:02.317Z,5.33
2019-03-02T05:52:54.292Z,11.00
2019-03-02T05:55:42.797Z,7.92
2019-03-02T05:58:32.234Z,4.72
2019-03-02T06:01:21.860Z,8.15
2019-03-02T06:04:11.497Z,6.10
2019-03-02T06:07:01.007Z,8.00
2019-03-02T06:09:51.095Z,9.58
2019-03-02T06:12:40.333Z,8.48
2019-03-02T06:15:29.531Z,10.90
2019-03-02T06:18:18.913Z,10.65
2019-03-02T06:21:10.780Z,6.25
2019-03-02T06:24:01.605Z,9.05
2019-03-02T06:26:50.188Z,9.15
2019-03-02T06:29:39.398Z,5.15
2019-03-02T06:32:30.216Z,4.42
2019-03-02T06:35:19.856Z,8.23
2019-03-02T06:38:09.107Z,10.70
2019-03-02T06:40:58.043Z,8.58
2019-03-02T06:43:48.689Z,3.35
2019-03-02T06:46:37.578Z,5.00
2019-03-02T06:49:26.903Z,5.62
2019-03-02T06:52:18.868Z,12.68
2019-03-02T06:55:09.031Z,8.15
2019-03-02T06:57:58.404Z,9.88
2019-03-02T07:00:48.890Z,11.45
2019-03-02T07:03:38.073Z,4.22
2019-03-02T07:06:26.939Z,5.08
2019-03-02T07:09:16.201Z,4.92
2019-03-02T07:12:05.969Z,9.40
2019-03-02T07:14:55.988Z,13.25
2019-03-02T07:17:46.802Z,6.15
2019-03-02T07:20:46.475Z,7.78
2019-03-02T07:23:35.644Z,7.47
2019-03-02T07:26:24.333Z,7.08
2019-03-02T07:29:13.902Z,4.60
2019-03-02T07:32:04.604Z,7.58
2019-03-02T07:34:54.081Z,7.65
2019-03-02T07:37:44.157Z,7.30
2019-03-02T07:40:33.927Z,11.88
2019-03-02T07:43:23.849Z,7.92
2019-03-02T07:46:13.494Z,5.20
2019-03-02T07:49:02.143Z,7.75
2019-03-02T07:51:50.972Z,9.70
2019-03-02T07:54:42.575Z,15.10
2019-03-02T07:57:30.745Z,7.03
2019-03-02T08:00:22.950Z,7.72
2019-03-02T08:03:11.964Z,12.50
2019-03-02T08:06:01.347Z,8.57
2019-03-02T08:08:51.023Z,7.78
2019-03-02T08:11:40.157Z,6.80
2019-03-02T08:14:28.744Z,5.78
2019-03-02T08:17:17.688Z,9.88
2019-03-02T08:20:11.708Z,8.15
2019-03-02T08:23:00.209Z,8.83
2019-03-02T08:25:49.707Z,8.63
2019-03-02T08:28:42.072Z,5.40
2019-03-02T08:31:29.685Z,6.75
2019-03-02T08:34:21.795Z,6.95
2019-03-02T08:37:10.880Z,6.78
2019-03-02T08:40:02.008Z,6.83
2019-03-02T08:42:51.080Z,9.03
2019-03-02T08:45:40.337Z,5.60
2019-03-02T08:48:29.815Z,5.90
2019-03-02T08:51:19.379Z,10.20
2019-03-02T08:54:08.757Z,9.80
2019-03-02T08:56:57.532Z,4.67
2019-03-02T08:59:46.479Z,5.12
2019-03-02T09:02:35.945Z,6.67
2019-03-02T09:05:42.775Z,2.98
2019-03-02T09:08:15.787Z,4.08
2019-03-02T09:11:05.395Z,5.42
2019-03-02T09:13:54.394Z,9.43
2019-03-02T09:16:44.055Z,6.83
2019-03-02T09:19:32.979Z,9.30
2019-03-02T09:22:24.242Z,7.20
2019-03-02T09:25:20.171Z,5.78
2019-03-02T09:28:09.697Z,8.00
2019-03-02T09:31:02.103Z,4.30
2019-03-02T09:33:49.797Z,6.05
2019-03-02T09:36:39.145Z,7.70
2019-03-02T09:39:31.758Z,3.52
2019-03-02T09:42:18.707Z,8.55
2019-03-02T09:45:12.734Z,4.75
2019-03-02T09:48:02.544Z,2.70
2019-03-02T10:13:21.673Z,5.25
2019-03-02T10:16:11.309Z,3.50
2019-03-02T10:24:39.644Z,3.30
2019-03-02T10:27:29.386Z,2.97
2019-03-02T10:30:22.129Z,2.25
2019-03-02T10:33:11.557Z,4.60
2019-03-02T10:36:00.890Z,4.07
2019-03-02T10:38:51.849Z,3.50
2019-03-02T11:10:22.455Z,5.53
2019-03-02T11:13:28.970Z,3.05
2019-03-02T11:16:34.498Z,2.25
2019-03-02T11:19:43.864Z,2.47
2019-03-02T11:22:38.749Z,2.65
2019-03-02T11:25:34.184Z,2.55
2019-03-02T11:28:27.398Z,2.20
2019-03-02T16:29:44.238Z,12.60
2019-03-02T16:44:09.996Z,16.23
2019-03-02T16:47:18.451Z,11.57
2019-03-02T16:50:18.651Z,17.20
2019-03-02T16:53:09.713Z,13.20
2019-03-02T16:56:03.509Z,18.00
2019-03-02T16:58:57.050Z,15.37
2019-03-02T17:01:54.241Z,7.75
2019-03-02T17:04:42.906Z,10.60
2019-03-02T17:07:32.380Z,11.65
2019-03-02T17:10:28.858Z,22.13
2019-03-02T17:13:22.343Z,14.03
2019-03-02T17:16:22.193Z,11.00
2019-03-02T17:19:13.015Z,21.50
2019-03-02T17:22:03.925Z,15.90
2019-03-02T17:24:54.465Z,14.40
2019-03-02T17:27:58.380Z,16.97
2019-03-02T17:30:51.829Z,33.20
2019-03-02T17:33:42.439Z,13.25
2019-03-02T17:36:48.235Z,11.28
2019-03-02T17:39:39.428Z,17.87
2019-03-02T17:42:45.838Z,17.10
2019-03-02T17:45:36.620Z,16.17
2019-03-02T17:48:27.731Z,15.68
2019-03-02T17:51:26.819Z,14.07
2019-03-02T17:54:42.039Z,11.55
2019-03-02T17:57:28.793Z,18.92
2019-03-02T18:00:21.996Z,14.15
2019-03-02T18:03:12.271Z,16.62
2019-03-02T18:06:03.053Z,15.75
2019-03-02T18:08:55.985Z,16.05
2019-03-02T18:11:50.369Z,28.02
2019-03-02T18:14:41.623Z,14.53
2019-03-02T18:17:40.784Z,36.35
2019-03-02T18:20:30.441Z,19.10
2019-03-02T18:23:22.518Z,17.02
2019-03-02T18:26:11.223Z,22.17
2019-03-02T18:29:00.603Z,35.38
2019-03-02T18:31:53.104Z,17.87
2019-03-02T18:34:39.859Z,31.82
2019-03-02T18:37:30.661Z,20.17
2019-03-02T18:40:20.149Z,19.60
2019-03-02T18:43:09.569Z,22.02
2019-03-02T18:45:59.392Z,18.20
2019-03-02T18:49:11.350Z,23.12
2019-03-02T18:52:13.063Z,22.02
2019-03-02T18:55:02.229Z,23.18
2019-03-02T18:57:52.144Z,22.35
2019-03-02T19:00:43.369Z,34.88
2019-03-02T19:03:32.415Z,31.65
2019-03-02T19:06:23.106Z,22.20
2019-03-02T19:09:12.917Z,29.55
2019-03-02T19:12:02.356Z,25.17
2019-03-02T19:14:53.795Z,31.95
2019-03-02T19:17:47.455Z,31.27
2019-03-02T19:20:36.611Z,33.67
2019-03-02T19:23:25.911Z,32.55
2019-03-02T19:26:15.255Z,33.85
2019-03-02T19:29:04.706Z,34.13
2019-03-02T19:31:53.386Z,30.92
2019-03-02T19:34:42.751Z,36.58
2019-03-02T19:37:32.124Z,31.57
2019-03-02T19:40:25.493Z,29.72
2019-03-02T19:43:14.247Z,34.80
2019-03-02T19:46:03.515Z,39.88
2019-03-02T19:48:52.542Z,39.48
2019-03-02T19:51:41.955Z,35.20
2019-03-02T19:54:31.525Z,32.98
2019-03-02T19:57:20.696Z,32.42
2019-03-02T20:00:22.848Z,42.73
2019-03-02T20:03:11.879Z,36.90
2019-03-02T20:06:01.198Z,34.78
2019-03-02T20:08:50.579Z,41.40
2019-03-02T20:11:40.054Z,56.98
2019-03-02T20:14:29.192Z,48.65
2019-03-02T20:17:18.067Z,61.23
2019-03-02T20:20:12.095Z,57.67
2019-03-02T20:23:01.359Z,50.30
2019-03-02T20:25:51.013Z,58.83
2019-03-02T20:28:40.116Z,46.53
2019-03-02T20:31:30.037Z,58.68
2019-03-02T20:34:19.280Z,44.25
2019-03-02T20:37:08.779Z,57.67
2019-03-02T20:39:57.627Z,43.40
2019-03-02T20:42:47.327Z,43.73
2019-03-02T20:45:36.908Z,46.53
2019-03-02T20:48:25.642Z,39.08
2019-03-02T20:51:14.321Z,62.30
2019-03-02T20:54:03.583Z,44.40
2019-03-02T20:56:52.813Z,53.45
2019-03-02T20:59:41.655Z,63.73
2019-03-02T21:02:30.481Z,43.30
2019-03-02T21:05:20.156Z,45.75
2019-03-02T21:08:09.423Z,46.37
2019-03-02T21:10:59.394Z,38.28
2019-03-02T21:13:48.700Z,57.62
2019-03-02T21:16:37.951Z,54.98
2019-03-02T21:19:27.025Z,46.30
2019-03-02T21:22:16.287Z,52.60
2019-03-02T21:25:06.769Z,42.65
2019-03-02T21:27:55.969Z,48.70
2019-03-02T21:30:45.129Z,42.88
2019-03-02T21:33:34.179Z,43.73
2019-03-02T21:36:23.111Z,46.95
2019-03-02T21:39:12.017Z,50.85
2019-03-02T21:42:01.167Z,43.00
2019-03-02T21:44:50.336Z,41.55
2019-03-02T21:47:40.017Z,46.00
2019-03-02T21:50:36.108Z,46.00
2019-03-02T21:53:25.261Z,39.35
2019-03-02T21:56:14.071Z,43.28
2019-03-02T21:59:02.969Z,46.68
2019-03-02T22:01:52.207Z,43.60
2019-03-02T22:04:41.546Z,43.40
2019-03-02T22:07:30.749Z,43.60
2019-03-02T22:10:24.346Z,46.55
2019-03-02T22:13:13.243Z,44.90
2019-03-02T22:16:02.424Z,42.15
2019-03-02T22:18:51.908Z,38.75
2019-03-02T22:21:40.669Z,48.25
2019-03-02T22:24:29.067Z,45.52
2019-03-02T22:27:18.594Z,48.35
2019-03-02T22:30:11.949Z,61.23
2019-03-02T22:33:01.307Z,46.95
2019-03-02T22:35:50.205Z,61.02
2019-03-02T22:38:39.464Z,48.87
2019-03-02T22:41:28.943Z,43.38
2019-03-02T22:44:18.410Z,44.67
2019-03-02T22:47:07.693Z,45.00
2019-03-02T22:49:56.628Z,40.80
2019-03-02T22:52:46.016Z,40.65
2019-03-02T22:55:35.485Z,41.40
2019-03-02T22:58:26.649Z,47.17
2019-03-02T23:01:38.497Z,41.73
2019-03-02T23:04:27.670Z,50.20
2019-03-02T23:07:16.584Z,41.02
2019-03-02T23:10:09.763Z,51.48
2019-03-02T23:12:59.628Z,42.62
2019-03-02T23:15:48.671Z,41.63
2019-03-02T23:18:38.371Z,51.15
2019-03-02T23:21:27.844Z,43.05
2019-03-02T23:24:17.667Z,41.68
2019-03-02T23:27:06.925Z,45.77
2019-03-02T23:29:56.236Z,47.45
2019-03-02T23:32:44.851Z,41.53
2019-03-02T23:35:34.344Z,50.33
2019-03-02T23:38:23.636Z,42.40
2019-03-02T23:41:12.981Z,43.15
2019-03-02T23:44:01.864Z,41.95
2019-03-02T23:46:50.597Z,43.63
2019-03-02T23:49:40.070Z,45.40
2019-03-02T23:52:28.870Z,41.35
2019-03-02T23:55:19.426Z,44.80
2019-03-02T23:58:08.764Z,43.47
